Time;durP1;ratioP1;P1;durP2;ratioP2;P2;SDS_P1;SDS_P2;PMS_P1;PMS_P2;Temp;Humidity;BMP_temperature;BMP_pressure;BME280_temperature;BME280_humidity;BME280_pressure;Samples;Min_cycle;Max_cycle;Signal;HPM_P1;HPM_P2
2021/08/03 00:01:22;;;;;;;8.23;6.40;;;11.10;99.90;;;;;;4997726;28;20519;-56
2021/08/03 00:03:54;;;;;;;6.77;6.10;;;11.10;99.90;;;;;;4990535;28;20500;-56
2021/08/03 00:06:24;;;;;;;7.30;5.60;;;11.00;99.90;;;;;;4996396;28;20561;-52
2021/08/03 00:08:57;;;;;;;6.67;5.93;;;11.00;99.90;;;;;;4997924;28;20445;-55
2021/08/03 00:11:24;;;;;;;7.33;6.63;;;11.00;99.90;;;;;;4998089;28;20512;-56
2021/08/03 00:13:52;;;;;;;7.73;6.90;;;10.90;99.90;;;;;;4997527;28;20948;-55
2021/08/03 00:16:21;;;;;;;7.93;5.80;;;10.90;99.90;;;;;;4998288;28;20890;-56
2021/08/03 00:18:51;;;;;;;6.90;6.30;;;10.90;99.90;;;;;;5004168;28;20456;-53
2021/08/03 00:21:20;;;;;;;7.53;6.37;;;10.90;99.90;;;;;;5003830;28;20539;-55
2021/08/03 00:23:51;;;;;;;8.50;5.83;;;10.90;99.90;;;;;;5004411;28;20932;-55
2021/08/03 00:26:18;;;;;;;6.20;5.70;;;10.90;99.90;;;;;;5004289;28;20471;-56
2021/08/03 00:28:49;;;;;;;6.57;6.07;;;10.80;99.90;;;;;;5004691;28;20862;-56
2021/08/03 00:31:17;;;;;;;6.90;6.03;;;10.70;99.90;;;;;;5004174;28;20469;-54
2021/08/03 00:33:46;;;;;;;8.27;6.00;;;10.70;99.90;;;;;;5004475;28;20438;-55
2021/08/03 00:36:14;;;;;;;6.40;5.83;;;10.70;99.90;;;;;;5003765;28;20479;-55
2021/08/03 00:38:41;;;;;;;9.60;6.93;;;10.70;99.90;;;;;;5004057;28;20515;-51
2021/08/03 00:41:12;;;;;;;9.27;6.50;;;10.80;99.90;;;;;;5004484;28;20522;-51
2021/08/03 01:21:49;;;;;;;5.90;5.40;;;10.50;99.90;;;;;;4198140;23;20500;-56
2021/08/03 01:24:50;;;;;;;7.10;6.47;;;10.50;99.90;;;;;;5003876;28;20485;-53
2021/08/03 01:27:26;;;;;;;6.70;6.00;;;10.40;99.90;;;;;;5003493;28;20438;-56
2021/08/03 01:29:57;;;;;;;6.93;6.23;;;10.40;99.90;;;;;;4999954;28;20464;-55
2021/08/03 01:32:27;;;;;;;6.33;5.73;;;10.30;99.90;;;;;;5000356;28;20477;-50
2021/08/03 01:34:56;;;;;;;7.97;6.13;;;10.30;99.90;;;;;;5001444;28;20457;-53
2021/08/03 01:37:25;;;;;;;8.00;5.83;;;10.30;99.90;;;;;;5000479;28;20465;-52
2021/08/03 01:39:56;;;;;;;6.03;5.40;;;10.30;99.90;;;;;;5000498;28;20468;-48
2021/08/03 01:42:25;;;;;;;7.67;6.27;;;10.30;99.90;;;;;;4999553;28;20468;-50
2021/08/03 01:44:56;;;;;;;6.13;5.53;;;10.40;99.90;;;;;;4999662;28;20559;-49
2021/08/03 01:47:26;;;;;;;6.40;5.77;;;10.30;99.90;;;;;;5000023;28;20432;-53
2021/08/03 01:49:57;;;;;;;6.30;5.70;;;10.30;99.90;;;;;;5000484;28;20495;-52
2021/08/03 01:52:24;;;;;;;6.70;6.10;;;10.30;99.90;;;;;;5000077;28;20964;-56
2021/08/03 02:30:13;;;;;;;9.03;5.83;;;10.50;99.90;;;;;;5018736;23;20940;-58
2021/08/03 03:12:12;;;;;;;6.67;6.07;;;11.00;99.90;;;;;;5073376;23;20470;-59
2021/08/03 03:14:43;;;;;;;7.60;6.87;;;11.00;99.90;;;;;;4999298;28;20515;-56
2021/08/03 03:17:14;;;;;;;7.63;6.93;;;11.00;99.90;;;;;;4998278;28;20504;-56
2021/08/03 04:32:36;;;;;;;11.20;9.97;;;11.60;99.90;;;;;;3014466;23;20899;-61
2021/08/03 04:35:03;;;;;;;10.80;9.70;;;11.60;99.90;;;;;;4998543;28;20457;-62
2021/08/03 04:37:39;;;;;;;9.47;8.57;;;11.60;99.90;;;;;;4997407;28;20897;-62
2021/08/03 04:40:07;;;;;;;10.30;9.23;;;11.60;99.90;;;;;;4997779;28;20466;-62
2021/08/03 04:42:34;;;;;;;11.07;9.00;;;11.70;99.90;;;;;;4997171;28;20465;-62
2021/08/03 04:45:02;;;;;;;10.37;9.37;;;11.60;99.90;;;;;;4997703;28;20570;-62
2021/08/03 04:47:28;;;;;;;12.53;9.43;;;11.70;99.90;;;;;;4998396;28;20510;-62
2021/08/03 04:49:57;;;;;;;11.97;10.77;;;11.70;99.90;;;;;;4997839;28;20928;-62
2021/08/03 04:52:24;;;;;;;11.03;10.03;;;11.80;99.90;;;;;;4997537;28;20809;-62
2021/08/03 04:54:51;;;;;;;11.83;10.70;;;11.90;99.90;;;;;;4997743;28;20456;-62
2021/08/03 04:57:18;;;;;;;11.10;10.00;;;11.90;99.90;;;;;;4997233;28;20762;-62
2021/08/03 04:59:45;;;;;;;12.63;10.43;;;11.90;99.90;;;;;;4997682;28;20522;-62
2021/08/03 05:02:12;;;;;;;12.47;10.17;;;12.00;99.90;;;;;;4997198;28;20469;-62
2021/08/03 05:04:42;;;;;;;12.57;11.23;;;12.00;99.90;;;;;;4990886;28;20546;-62
2021/08/03 05:07:11;;;;;;;9.73;8.90;;;12.00;99.90;;;;;;5000589;28;20461;-62
2021/08/03 05:09:38;;;;;;;10.17;9.17;;;12.00;99.90;;;;;;5001209;28;20465;-62
2021/08/03 05:12:06;;;;;;;13.30;9.40;;;12.10;99.90;;;;;;5001019;28;20559;-62
2021/08/03 05:14:33;;;;;;;10.90;9.80;;;12.10;99.90;;;;;;5000294;28;20537;-61
2021/08/03 05:17:00;;;;;;;12.10;10.33;;;12.20;99.90;;;;;;5001155;28;20475;-61
2021/08/03 05:58:29;;;;;;;13.10;11.10;;;13.30;99.90;;;;;;5376143;23;20439;-63
2021/08/03 06:00:56;;;;;;;12.10;10.83;;;13.40;99.90;;;;;;5000296;28;20412;-63
2021/08/03 06:03:23;;;;;;;11.70;10.70;;;13.60;99.90;;;;;;4992637;28;21574;-63
2021/08/03 06:05:51;;;;;;;12.77;11.57;;;13.70;99.90;;;;;;4995115;28;20475;-63
2021/08/03 06:08:24;;;;;;;14.30;11.40;;;13.70;99.90;;;;;;4998946;28;20464;-63
2021/08/03 06:10:58;;;;;;;13.17;10.80;;;13.70;99.90;;;;;;4999965;28;20469;-63
2021/08/03 06:13:30;;;;;;;10.67;9.57;;;13.80;99.90;;;;;;4999024;28;20461;-63
2021/08/03 06:16:00;;;;;;;15.57;11.20;;;13.80;99.90;;;;;;4999204;28;20464;-63
2021/08/03 06:18:31;;;;;;;13.03;11.00;;;13.90;99.90;;;;;;4999910;28;20469;-63
2021/08/03 06:20:59;;;;;;;13.70;11.57;;;13.90;99.90;;;;;;4999525;28;20520;-62
2021/08/03 06:23:26;;;;;;;12.60;11.30;;;13.90;99.90;;;;;;4998851;28;20469;-62
2021/08/03 06:25:57;;;;;;;12.70;11.30;;;13.90;99.90;;;;;;4998709;28;20496;-62
2021/08/03 06:28:26;;;;;;;12.00;10.37;;;13.90;99.90;;;;;;4998836;28;20916;-62
2021/08/03 06:30:55;;;;;;;11.73;10.53;;;13.90;99.90;;;;;;4999775;28;20811;-62
2021/08/03 06:33:24;;;;;;;11.77;10.67;;;13.80;99.90;;;;;;4999407;28;20465;-62
2021/08/03 06:35:53;;;;;;;12.90;10.90;;;13.90;99.90;;;;;;4999734;28;20519;-62
2021/08/03 06:38:22;;;;;;;11.90;10.83;;;13.90;99.90;;;;;;4999208;28;20463;-62
2021/08/03 06:40:54;;;;;;;12.83;11.13;;;14.00;99.90;;;;;;4999342;28;20504;-62
2021/08/03 06:43:25;;;;;;;12.53;11.27;;;13.90;99.90;;;;;;4999255;28;20519;-62
2021/08/03 07:26:21;;;;;;;12.10;10.90;;;14.90;99.90;;;;;;5026645;23;20879;-65
2021/08/03 07:28:48;;;;;;;11.67;10.67;;;14.90;99.90;;;;;;4998249;28;20435;-65
2021/08/03 07:31:15;;;;;;;12.80;11.53;;;14.90;99.90;;;;;;4998088;28;20460;-65
2021/08/03 07:33:42;;;;;;;13.73;11.60;;;14.90;99.90;;;;;;4998222;28;20559;-65
2021/08/03 07:36:10;;;;;;;11.90;10.80;;;15.00;99.90;;;;;;4998342;28;20458;-65
2021/08/03 07:38:37;;;;;;;11.20;9.80;;;15.10;99.90;;;;;;4998597;28;20559;-65
2021/08/03 07:41:04;;;;;;;12.90;11.70;;;15.10;99.90;;;;;;4990157;28;20468;-65
2021/08/03 07:43:32;;;;;;;11.60;10.43;;;15.30;99.90;;;;;;4997962;28;20461;-65
2021/08/03 07:46:02;;;;;;;11.43;10.33;;;15.40;99.90;;;;;;4998331;28;20987;-65
2021/08/03 07:48:29;;;;;;;14.03;10.40;;;15.60;99.90;;;;;;4998346;28;20461;-65
2021/08/03 07:50:56;;;;;;;15.03;10.37;;;15.60;99.90;;;;;;4998132;28;20837;-65
2021/08/03 07:53:23;;;;;;;12.20;10.30;;;15.60;99.90;;;;;;4998245;28;20484;-65
2021/08/03 07:55:50;;;;;;;11.70;9.33;;;15.70;99.90;;;;;;4997883;28;20461;-65
2021/08/03 07:58:20;;;;;;;13.67;9.57;;;15.70;99.90;;;;;;4998176;28;20519;-65
2021/08/03 08:00:48;;;;;;;10.87;9.77;;;15.80;99.90;;;;;;4998210;28;20499;-65
2021/08/03 08:03:21;;;;;;;11.90;9.83;;;15.80;99.90;;;;;;4992007;28;20469;-65
2021/08/03 08:05:48;;;;;;;10.47;9.37;;;15.80;99.90;;;;;;4993241;28;20557;-65
2021/08/03 08:08:19;;;;;;;10.27;9.37;;;15.90;99.90;;;;;;4997252;28;20440;-65
2021/08/03 08:10:47;;;;;;;18.87;9.00;;;15.80;99.90;;;;;;4997806;28;20523;-65
2021/08/03 08:13:14;;;;;;;11.40;9.57;;;15.90;99.90;;;;;;4997603;28;20945;-65
2021/08/03 08:15:42;;;;;;;9.83;7.90;;;15.80;99.90;;;;;;4997823;28;20882;-65
2021/08/03 08:18:10;;;;;;;9.87;7.60;;;16.00;99.90;;;;;;4997822;28;20468;-65
2021/08/03 08:20:38;;;;;;;9.50;7.93;;;16.10;99.90;;;;;;4998456;28;20886;-65
2021/08/03 08:23:11;;;;;;;10.00;9.00;;;16.20;99.90;;;;;;4996996;28;20461;-65
2021/08/03 08:25:39;;;;;;;14.40;8.50;;;16.50;99.90;;;;;;4997225;28;20501;-65
2021/08/03 08:28:07;;;;;;;11.33;8.40;;;16.70;99.90;;;;;;4998121;28;20513;-65
2021/08/03 08:30:35;;;;;;;10.63;8.10;;;16.70;99.90;;;;;;4998228;28;20531;-65
2021/08/03 08:33:02;;;;;;;9.83;8.90;;;16.80;99.90;;;;;;4997726;28;20464;-63
2021/08/03 08:35:33;;;;;;;12.57;7.80;;;17.00;99.90;;;;;;4997662;28;20797;-63
2021/08/03 08:38:00;;;;;;;9.93;8.60;;;17.10;99.90;;;;;;4998360;28;20464;-64
2021/08/03 08:40:27;;;;;;;10.03;8.50;;;17.30;99.90;;;;;;5002008;28;20465;-64
2021/08/03 08:42:54;;;;;;;10.00;8.53;;;17.60;99.90;;;;;;5001351;28;20469;-66
2021/08/03 08:45:21;;;;;;;9.23;8.33;;;18.00;99.90;;;;;;5001190;28;20503;-67
2021/08/03 08:47:52;;;;;;;11.60;8.77;;;18.40;99.90;;;;;;5001279;28;20543;-67
2021/08/03 08:50:21;;;;;;;11.70;8.40;;;19.20;99.90;;;;;;5001676;28;20464;-67
2021/08/03 08:52:53;;;;;;;9.07;8.13;;;19.10;99.90;;;;;;5001105;28;20465;-66
2021/08/03 08:55:21;;;;;;;9.10;8.03;;;19.30;99.90;;;;;;5000913;28;20471;-66
2021/08/03 08:57:52;;;;;;;8.67;7.40;;;19.90;99.90;;;;;;5001236;28;20493;-66
2021/08/03 09:00:26;;;;;;;13.30;8.00;;;20.10;99.90;;;;;;5001378;28;20469;-65
2021/08/03 09:02:56;;;;;;;10.10;7.60;;;20.30;99.90;;;;;;4997371;28;20451;-65
2021/08/03 09:05:37;;;;;;;8.50;7.50;;;20.30;99.90;;;;;;4995582;28;20528;-65
2021/08/03 09:08:11;;;;;;;10.73;9.17;;;19.80;99.90;;;;;;4981746;28;20465;-64
2021/08/03 09:10:40;;;;;;;8.70;7.80;;;20.10;99.90;;;;;;5001219;28;20476;-64
2021/08/03 09:13:14;;;;;;;10.90;8.73;;;20.00;99.90;;;;;;5000234;28;20523;-64
2021/08/03 09:15:46;;;;;;;8.23;7.33;;;20.10;99.90;;;;;;5000876;28;20469;-64
2021/08/03 09:18:23;;;;;;;8.23;7.43;;;20.30;99.90;;;;;;5001027;28;20919;-63
2021/08/03 09:20:50;;;;;;;10.17;8.20;;;20.20;99.90;;;;;;5001110;28;20559;-63
2021/08/03 09:23:18;;;;;;;23.10;17.17;;;19.90;99.90;;;;;;5000978;28;20877;-62
2021/08/03 09:25:56;;;;;;;12.00;10.70;;;19.60;99.90;;;;;;5000445;28;20603;-62
2021/08/03 09:28:24;;;;;;;9.00;8.00;;;19.10;99.90;;;;;;5001136;28;20821;-62
2021/08/03 09:30:51;;;;;;;9.80;8.90;;;19.60;99.90;;;;;;5000862;28;20877;-62
2021/08/03 09:33:24;;;;;;;8.43;7.20;;;20.10;99.90;;;;;;5000187;28;20464;-61
2021/08/03 09:35:51;;;;;;;7.70;6.40;;;20.50;99.90;;;;;;5000544;28;20460;-61
2021/08/03 09:38:26;;;;;;;6.73;6.00;;;20.50;99.90;;;;;;5000001;28;20476;-59
2021/08/03 09:41:08;;;;;;;6.97;5.93;;;20.50;99.90;;;;;;5000649;28;20882;-58
2021/08/03 09:43:38;;;;;;;7.83;6.53;;;20.50;99.90;;;;;;5000276;28;20575;-60
2021/08/03 09:46:05;;;;;;;7.07;6.47;;;20.60;99.80;;;;;;5000232;28;20500;-60
2021/08/03 09:48:32;;;;;;;7.40;6.80;;;20.60;96.40;;;;;;5000689;28;20742;-60
2021/08/03 09:51:06;;;;;;;6.80;6.10;;;20.70;93.80;;;;;;4999418;28;20461;-60
2021/08/03 09:53:45;;;;;;;6.20;5.70;;;20.70;96.50;;;;;;4999827;28;20465;-59
2021/08/03 09:56:14;;;;;;;7.43;5.40;;;20.60;96.10;;;;;;5000296;28;20461;-58
2021/08/03 09:59:03;;;;;;;6.40;5.80;;;20.50;97.20;;;;;;5000293;28;20460;-58
2021/08/03 10:01:32;;;;;;;6.37;5.90;;;20.30;96.30;;;;;;5000067;28;20472;-58
2021/08/03 10:04:02;;;;;;;6.27;5.67;;;20.30;96.00;;;;;;4990906;28;20940;-56
2021/08/03 10:06:32;;;;;;;6.23;5.63;;;20.30;94.70;;;;;;4999419;28;20460;-57
2021/08/03 10:09:02;;;;;;;6.37;5.70;;;20.30;94.90;;;;;;5000359;28;20456;-58
2021/08/03 10:11:32;;;;;;;5.23;4.80;;;20.20;94.00;;;;;;4999897;28;20465;-56
2021/08/03 10:14:00;;;;;;;6.00;5.50;;;20.10;95.80;;;;;;4999803;28;20577;-58
2021/08/03 10:16:27;;;;;;;6.00;5.60;;;20.10;98.30;;;;;;5000258;28;20555;-54
2021/08/03 10:18:57;;;;;;;6.33;5.73;;;20.10;95.10;;;;;;4999964;28;20477;-57
2021/08/03 10:21:31;;;;;;;5.50;4.97;;;20.10;92.80;;;;;;4999442;28;20457;-57
2021/08/03 10:24:09;;;;;;;5.40;4.90;;;19.90;94.60;;;;;;4999496;28;20476;-57
2021/08/03 10:26:37;;;;;;;4.70;4.30;;;19.80;95.80;;;;;;4999603;28;20504;-56
2021/08/03 10:29:26;;;;;;;4.97;4.57;;;20.00;96.60;;;;;;4999549;28;20469;-53
2021/08/03 10:31:57;;;;;;;5.80;5.40;;;20.10;94.40;;;;;;4999597;28;20465;-57
2021/08/03 10:34:59;;;;;;;6.40;5.90;;;20.00;94.10;;;;;;4999835;28;20742;-54
2021/08/03 10:37:27;;;;;;;6.73;5.43;;;19.60;94.50;;;;;;4999509;28;20964;-57
2021/08/03 10:39:57;;;;;;;6.00;5.47;;;19.50;97.90;;;;;;4998496;28;20515;-57
2021/08/03 10:42:27;;;;;;;5.07;4.67;;;19.60;96.00;;;;;;4999687;28;20746;-58
2021/08/03 10:44:58;;;;;;;5.90;4.83;;;19.30;98.20;;;;;;4999520;28;20515;-57
2021/08/03 10:47:47;;;;;;;7.10;4.60;;;19.20;99.90;;;;;;4999171;28;20543;-58
2021/08/03 10:50:32;;;;;;;5.07;4.67;;;19.00;99.90;;;;;;4998306;28;20523;-58
2021/08/03 10:53:02;;;;;;;4.90;4.50;;;18.80;99.90;;;;;;4983448;28;20883;-58
2021/08/03 10:55:37;;;;;;;4.80;4.30;;;18.70;99.90;;;;;;4998866;28;20918;-59
2021/08/03 10:58:28;;;;;;;5.53;5.03;;;18.50;99.90;;;;;;4999093;28;20468;-59
2021/08/03 11:01:00;;;;;;;5.73;5.33;;;18.20;99.90;;;;;;4999244;28;20465;-61
2021/08/03 11:03:46;;;;;;;6.10;5.50;;;18.00;99.90;;;;;;4993885;28;20476;-62
2021/08/03 11:06:34;;;;;;;7.07;6.37;;;17.80;99.90;;;;;;4994479;28;20496;-62
2021/08/03 11:09:02;;;;;;;6.67;6.17;;;17.70;99.90;;;;;;4999136;28;20465;-61
2021/08/03 11:11:37;;;;;;;7.07;6.47;;;17.70;99.90;;;;;;4998217;28;20527;-62
2021/08/03 11:14:06;;;;;;;7.20;6.60;;;17.70;99.90;;;;;;4997874;28;20504;-63
2021/08/03 11:54:18;;;;;;;6.00;5.50;;;19.50;99.90;;;;;;5165074;23;20551;-62
2021/08/03 11:56:53;;;;;;;6.60;5.90;;;19.20;99.90;;;;;;4998273;28;20515;-62
2021/08/03 12:36:15;;;;;;;6.63;5.83;;;17.90;99.90;;;;;;5192465;23;20488;-59
2021/08/03 12:39:02;;;;;;;6.93;6.43;;;17.90;99.90;;;;;;4992594;28;20443;-59
2021/08/03 12:41:32;;;;;;;6.23;5.73;;;17.90;99.90;;;;;;4977800;28;20466;-58
2021/08/03 12:44:02;;;;;;;6.00;5.60;;;18.00;99.90;;;;;;4978396;28;20882;-58
2021/08/03 12:46:39;;;;;;;6.50;6.00;;;18.20;99.90;;;;;;4977961;28;20835;-59
2021/08/03 12:49:11;;;;;;;6.53;5.57;;;18.40;99.90;;;;;;4978361;28;20809;-59
2021/08/03 12:51:40;;;;;;;6.10;5.53;;;18.50;99.90;;;;;;4978128;28;20890;-57
2021/08/03 13:28:39;;;;;;;4.73;4.43;;;21.50;99.90;;;;;;3756838;23;20465;-58
2021/08/03 13:31:09;;;;;;;4.80;4.50;;;21.70;99.90;;;;;;4990493;28;20470;-58
2021/08/03 13:33:36;;;;;;;4.80;4.40;;;21.70;99.90;;;;;;4998802;28;20449;-56
2021/08/03 13:36:03;;;;;;;4.63;3.93;;;21.30;99.90;;;;;;4999857;28;20802;-55
2021/08/03 13:38:32;;;;;;;4.30;4.00;;;21.90;99.90;;;;;;4992926;28;20529;-56
2021/08/03 13:40:59;;;;;;;3.47;3.27;;;22.10;97.50;;;;;;4998821;28;20465;-56
2021/08/03 13:43:26;;;;;;;3.57;3.27;;;22.60;96.40;;;;;;4997539;28;20468;-56
2021/08/03 13:45:58;;;;;;;4.70;4.30;;;22.80;98.20;;;;;;4987324;28;20499;-55
2021/08/03 13:48:25;;;;;;;6.20;4.10;;;23.30;93.50;;;;;;4997720;28;20465;-56
2021/08/03 13:50:52;;;;;;;3.70;3.40;;;23.30;91.80;;;;;;4987654;28;20836;-58
2021/08/03 13:53:22;;;;;;;3.20;3.00;;;24.20;83.60;;;;;;4985548;28;20466;-58
2021/08/03 14:29:34;;;;;;;3.50;3.30;;;23.70;76.20;;;;;;4665729;23;20778;-59
2021/08/03 14:32:01;;;;;;;4.20;3.90;;;23.50;77.80;;;;;;4998633;28;20464;-58
2021/08/03 14:34:28;;;;;;;4.13;3.73;;;23.30;80.80;;;;;;4998303;28;20605;-58
2021/08/03 14:36:55;;;;;;;3.97;3.60;;;23.70;79.00;;;;;;4998171;28;20520;-57
2021/08/03 14:39:24;;;;;;;3.30;3.10;;;23.70;79.20;;;;;;4999223;28;20519;-57
2021/08/03 14:42:05;;;;;;;3.23;2.93;;;23.10;80.20;;;;;;4999622;28;20804;-57
2021/08/03 14:44:33;;;;;;;4.77;4.30;;;22.90;84.30;;;;;;4998151;28;20460;-58
2021/08/03 15:24:37;;;;;;;3.30;3.00;;;22.80;85.90;;;;;;5244813;23;20495;-59
2021/08/03 15:27:08;;;;;;;3.43;3.23;;;22.80;83.70;;;;;;4997791;28;20767;-57
2021/08/03 15:29:35;;;;;;;2.93;2.73;;;22.60;86.00;;;;;;4996978;28;20879;-58
2021/08/03 15:32:03;;;;;;;3.83;3.53;;;22.20;88.50;;;;;;4997928;28;20796;-56
2021/08/03 15:34:31;;;;;;;3.80;3.53;;;21.90;91.30;;;;;;4998413;28;20830;-60
2021/08/03 15:37:01;;;;;;;3.50;3.20;;;21.80;91.80;;;;;;4998003;28;20460;-55
2021/08/03 15:39:28;;;;;;;7.27;3.90;;;21.80;91.60;;;;;;4997925;28;20814;-54
2021/08/03 15:41:58;;;;;;;3.10;2.90;;;21.60;91.50;;;;;;4998417;28;20972;-57
2021/08/03 15:44:25;;;;;;;3.30;3.10;;;21.70;92.90;;;;;;4998233;28;20519;-54
2021/08/03 15:46:52;;;;;;;4.20;3.80;;;21.00;92.60;;;;;;4998070;28;20647;-55
2021/08/03 15:49:21;;;;;;;3.10;2.90;;;21.00;96.20;;;;;;4997369;28;20815;-55
2021/08/03 15:51:50;;;;;;;4.23;3.30;;;21.20;95.60;;;;;;4997762;28;20543;-56
2021/08/03 15:54:17;;;;;;;4.90;4.20;;;21.20;96.30;;;;;;4998512;28;20444;-56
2021/08/03 15:56:48;;;;;;;5.30;4.90;;;21.00;99.20;;;;;;4997628;28;20485;-56
2021/08/03 15:59:17;;;;;;;5.70;5.20;;;20.50;99.90;;;;;;4998029;28;20751;-56
2021/08/03 16:01:44;;;;;;;4.50;4.10;;;20.40;99.90;;;;;;4997803;28;20479;-54
2021/08/03 16:04:11;;;;;;;5.63;5.13;;;19.90;99.90;;;;;;4988476;28;21934;-54
2021/08/03 16:06:41;;;;;;;6.07;5.47;;;20.00;99.90;;;;;;4995592;28;20849;-55
2021/08/03 16:09:08;;;;;;;5.33;4.83;;;19.90;99.90;;;;;;4997161;28;20435;-57
2021/08/03 16:11:35;;;;;;;4.83;4.43;;;19.80;99.90;;;;;;4997968;28;20468;-53
2021/08/03 16:14:02;;;;;;;5.30;4.90;;;19.90;99.90;;;;;;4997256;28;20464;-52
2021/08/03 16:16:34;;;;;;;9.50;4.90;;;19.50;99.90;;;;;;4997623;28;20471;-50
2021/08/03 16:19:06;;;;;;;4.60;4.30;;;19.60;99.90;;;;;;4998001;28;20457;-53
2021/08/03 16:21:35;;;;;;;6.23;5.63;;;19.50;99.90;;;;;;4997110;28;20805;-52
2021/08/03 18:47:44;;;;;;;5.30;4.80;;;16.20;99.90;;;;;;5173141;23;20555;-68
2021/08/03 18:50:12;;;;;;;6.10;5.70;;;16.10;99.90;;;;;;4998439;28;20475;-68
2021/08/03 18:52:41;;;;;;;5.13;4.63;;;16.10;99.90;;;;;;4998784;28;20520;-68
2021/08/03 18:55:09;;;;;;;5.43;4.77;;;16.10;99.90;;;;;;4998926;28;20475;-67
2021/08/03 18:57:44;;;;;;;5.03;4.60;;;16.00;99.90;;;;;;4999702;28;20457;-67
2021/08/03 19:00:14;;;;;;;5.43;4.97;;;16.00;99.90;;;;;;4998525;28;20915;-67
2021/08/03 19:02:44;;;;;;;6.10;4.67;;;16.00;99.90;;;;;;4996853;28;20469;-67
2021/08/03 19:05:16;;;;;;;6.23;5.60;;;16.00;99.90;;;;;;4989576;28;20451;-67
2021/08/03 19:07:56;;;;;;;6.30;5.70;;;15.90;99.90;;;;;;4998743;28;20496;-67
2021/08/03 19:10:32;;;;;;;6.70;5.40;;;15.90;99.90;;;;;;4998794;28;20771;-66
2021/08/03 19:13:10;;;;;;;5.50;5.00;;;15.90;99.90;;;;;;4996744;28;20539;-67
2021/08/03 19:15:41;;;;;;;5.80;5.30;;;15.90;99.90;;;;;;4997399;28;20465;-67
2021/08/03 19:18:10;;;;;;;5.70;5.20;;;15.80;99.90;;;;;;4996880;28;20461;-67
2021/08/03 19:20:40;;;;;;;6.80;5.80;;;15.80;99.90;;;;;;4998466;28;20981;-67
2021/08/03 19:23:11;;;;;;;8.30;6.97;;;15.80;99.90;;;;;;4998627;28;21718;-68
2021/08/03 19:25:40;;;;;;;6.77;6.20;;;15.80;99.90;;;;;;4997921;28;20508;-68
2021/08/03 19:28:13;;;;;;;6.90;5.50;;;15.80;99.90;;;;;;4998329;28;20504;-68
2021/08/03 19:30:40;;;;;;;6.40;5.90;;;15.80;99.90;;;;;;4998370;28;20881;-68
2021/08/03 19:33:10;;;;;;;6.53;5.93;;;15.80;99.90;;;;;;4998639;28;20464;-68
2021/08/03 19:35:43;;;;;;;6.50;5.90;;;15.70;99.90;;;;;;4998130;28;20464;-68
2021/08/03 19:38:10;;;;;;;6.27;5.70;;;15.70;99.90;;;;;;4997067;28;20717;-68
2021/08/03 19:40:40;;;;;;;6.40;5.90;;;15.70;99.90;;;;;;4996887;28;20469;-69
2021/08/03 19:43:19;;;;;;;7.60;6.90;;;15.70;99.90;;;;;;4996839;28;20865;-69
2021/08/03 19:45:48;;;;;;;8.10;6.70;;;15.70;99.90;;;;;;4995828;28;20554;-68
2021/08/03 19:48:18;;;;;;;7.00;5.80;;;15.70;99.90;;;;;;4997989;28;20508;-68
2021/08/03 19:50:50;;;;;;;6.97;6.37;;;15.70;99.90;;;;;;4997872;28;20469;-68
2021/08/03 19:53:17;;;;;;;6.73;6.10;;;15.70;99.90;;;;;;4997552;28;20469;-68
2021/08/03 19:55:47;;;;;;;6.93;6.33;;;15.70;99.90;;;;;;4998289;28;20465;-68
2021/08/03 19:58:21;;;;;;;8.57;6.83;;;15.70;99.90;;;;;;4998350;28;20538;-68
2021/08/03 20:00:50;;;;;;;6.40;5.80;;;15.70;99.90;;;;;;4998126;28;20468;-68
2021/08/03 20:03:20;;;;;;;6.07;5.57;;;15.70;99.90;;;;;;4991038;28;20469;-68
2021/08/03 20:05:48;;;;;;;6.20;5.70;;;15.70;99.90;;;;;;4994498;28;20805;-69
2021/08/03 20:08:18;;;;;;;7.43;6.10;;;15.70;99.90;;;;;;4997346;28;20562;-69
2021/08/03 20:10:53;;;;;;;7.33;6.70;;;15.70;99.90;;;;;;4997862;28;20519;-69
2021/08/03 20:13:24;;;;;;;7.10;6.40;;;15.70;99.90;;;;;;4998319;28;20468;-68
2021/08/03 20:15:55;;;;;;;6.77;6.10;;;15.70;99.90;;;;;;4998099;28;20465;-68
2021/08/03 20:18:24;;;;;;;7.10;6.50;;;15.70;99.90;;;;;;4997934;28;20465;-68
2021/08/03 20:20:51;;;;;;;7.37;6.77;;;15.70;99.90;;;;;;4997569;28;20464;-67
2021/08/03 20:23:26;;;;;;;7.53;6.73;;;15.70;99.90;;;;;;4977240;28;20505;-67
2021/08/03 20:26:01;;;;;;;8.00;7.30;;;15.70;99.90;;;;;;4978234;28;20469;-67
2021/08/03 20:28:32;;;;;;;7.10;6.50;;;15.60;99.90;;;;;;4978566;28;20494;-67
2021/08/03 20:31:02;;;;;;;6.87;6.37;;;15.60;99.90;;;;;;4978291;28;20961;-67
2021/08/03 20:33:37;;;;;;;8.20;7.43;;;15.50;99.90;;;;;;4978567;28;20802;-67
2021/08/03 20:36:07;;;;;;;8.40;7.70;;;15.50;99.90;;;;;;4982250;28;20824;-67
2021/08/03 20:38:35;;;;;;;7.47;6.87;;;15.50;99.90;;;;;;4987353;28;20449;-67
2021/08/03 20:41:16;;;;;;;8.33;7.53;;;15.50;99.90;;;;;;4993226;28;20562;-67
2021/08/03 20:43:47;;;;;;;9.17;8.37;;;15.50;99.90;;;;;;5001718;28;20468;-66
2021/08/03 20:46:14;;;;;;;9.07;8.27;;;15.50;99.90;;;;;;5001201;28;20476;-66
2021/08/03 20:49:01;;;;;;;9.17;8.20;;;15.60;99.90;;;;;;5000930;28;20496;-66
2021/08/03 20:51:29;;;;;;;9.20;8.30;;;15.60;99.90;;;;;;5001507;28;20862;-66
2021/08/03 20:54:07;;;;;;;9.40;8.50;;;15.60;99.90;;;;;;5001539;28;20507;-66
2021/08/03 20:56:49;;;;;;;8.33;7.63;;;15.60;99.90;;;;;;5001503;28;20852;-66
2021/08/03 20:59:17;;;;;;;10.27;9.27;;;15.50;99.90;;;;;;5001013;28;20463;-66
2021/08/03 21:01:52;;;;;;;9.53;8.53;;;15.50;99.90;;;;;;5001797;28;20789;-66
2021/08/03 21:04:40;;;;;;;9.70;8.80;;;15.50;99.90;;;;;;4989308;28;20803;-66
2021/08/03 21:07:09;;;;;;;10.40;9.50;;;15.50;99.90;;;;;;4998711;28;20456;-67
2021/08/03 21:09:43;;;;;;;10.10;9.20;;;15.40;99.90;;;;;;5000294;28;20773;-67
2021/08/03 21:12:13;;;;;;;12.07;9.80;;;15.40;99.90;;;;;;5000520;28;20535;-66
2021/08/03 21:14:44;;;;;;;9.87;9.10;;;15.50;99.90;;;;;;5000458;28;20468;-66
2021/08/03 21:17:16;;;;;;;11.07;10.10;;;15.50;99.90;;;;;;5001466;28;20460;-66
2021/08/03 21:19:56;;;;;;;10.50;9.47;;;15.40;99.90;;;;;;4999839;28;20467;-66
2021/08/03 21:22:23;;;;;;;10.17;9.37;;;15.40;99.90;;;;;;4988672;28;20552;-66
2021/08/03 21:24:54;;;;;;;13.77;9.30;;;15.40;99.90;;;;;;4981400;28;20465;-66
2021/08/03 21:27:28;;;;;;;10.13;9.23;;;15.30;99.90;;;;;;4981213;28;20500;-66
2021/08/03 21:30:03;;;;;;;10.67;9.70;;;15.30;99.90;;;;;;4981247;28;20902;-66
2021/08/03 21:32:33;;;;;;;11.10;10.00;;;15.30;99.90;;;;;;4980599;28;20493;-67
2021/08/03 21:35:02;;;;;;;11.33;10.33;;;15.30;99.90;;;;;;4980774;28;20462;-67
2021/08/03 21:37:29;;;;;;;10.70;9.50;;;15.30;99.90;;;;;;4980842;28;20462;-67
2021/08/03 21:39:56;;;;;;;13.50;12.20;;;15.30;99.90;;;;;;4996462;28;20968;-67
2021/08/03 21:42:29;;;;;;;11.40;10.40;;;15.20;99.90;;;;;;5000261;28;20866;-67
2021/08/03 21:44:57;;;;;;;11.30;10.30;;;15.20;99.90;;;;;;5000363;28;20513;-67
2021/08/03 21:47:29;;;;;;;12.13;11.03;;;15.20;99.90;;;;;;4998805;28;20508;-67
2021/08/03 21:49:59;;;;;;;12.53;11.33;;;15.20;99.90;;;;;;4999926;28;20468;-67
2021/08/03 21:52:29;;;;;;;11.20;10.30;;;15.20;99.90;;;;;;5000931;28;20431;-67
2021/08/03 21:54:56;;;;;;;11.30;10.30;;;15.10;99.90;;;;;;5000277;28;20556;-66
2021/08/03 21:57:28;;;;;;;13.10;12.00;;;15.10;99.90;;;;;;5000123;28;20461;-66
2021/08/03 21:59:55;;;;;;;13.20;12.10;;;15.10;99.90;;;;;;5000124;28;20440;-66
2021/08/03 22:02:27;;;;;;;12.60;11.40;;;15.10;99.90;;;;;;4999854;28;20473;-66
2021/08/03 22:04:54;;;;;;;14.97;13.50;;;15.10;99.90;;;;;;4993499;28;20476;-66
2021/08/03 22:07:21;;;;;;;13.93;12.73;;;15.10;99.90;;;;;;4996340;28;20501;-66
2021/08/03 22:09:50;;;;;;;13.03;11.93;;;15.10;99.90;;;;;;4980581;28;20461;-66
2021/08/03 22:12:17;;;;;;;14.10;12.80;;;15.10;99.90;;;;;;4980075;28;20466;-66
2021/08/03 22:14:49;;;;;;;15.63;14.23;;;15.00;99.90;;;;;;4980542;28;20433;-66
2021/08/03 22:17:19;;;;;;;14.97;13.57;;;15.00;99.90;;;;;;4980176;28;20465;-66
2021/08/03 22:19:46;;;;;;;15.93;14.53;;;15.00;99.90;;;;;;4980331;28;20922;-66
2021/08/03 22:22:13;;;;;;;15.63;14.27;;;15.00;99.90;;;;;;4979920;28;20473;-66
2021/08/03 22:24:40;;;;;;;15.97;14.37;;;14.90;99.90;;;;;;4980379;28;20837;-66
2021/08/03 22:27:14;;;;;;;15.17;13.77;;;14.80;99.90;;;;;;4979662;28;20783;-66
2021/08/03 22:29:44;;;;;;;15.13;13.53;;;14.90;99.90;;;;;;4980534;28;20879;-66
2021/08/03 22:32:14;;;;;;;14.13;12.70;;;14.90;99.90;;;;;;4980599;28;20759;-66
2021/08/03 22:34:44;;;;;;;14.53;13.23;;;15.00;99.90;;;;;;4979869;28;20521;-66
2021/08/03 22:37:12;;;;;;;16.93;13.93;;;14.90;99.90;;;;;;4980001;28;20466;-66
2021/08/03 22:39:39;;;;;;;15.03;13.70;;;14.90;99.90;;;;;;4982620;28;20525;-66
2021/08/03 22:42:06;;;;;;;14.70;13.37;;;14.80;99.90;;;;;;4999037;28;20563;-66
2021/08/03 22:44:35;;;;;;;14.10;11.67;;;14.80;99.90;;;;;;4999414;28;20467;-66
2021/08/03 22:47:04;;;;;;;13.63;12.43;;;14.80;99.90;;;;;;4999444;28;20511;-66